createdAt,value
2022-09-10T00:05:10.124Z,39.20
2022-09-10T00:10:19.012Z,37.10
2022-09-10T00:15:26.115Z,38.40
2022-09-10T00:20:32.992Z,34.40
2022-09-10T00:25:40.329Z,35.50
2022-09-10T00:30:49.483Z,35.60
2022-09-10T00:35:59.933Z,37.80
2022-09-10T00:41:08.406Z,38.00
2022-09-10T00:46:17.316Z,36.40
2022-09-10T00:51:25.429Z,35.00
2022-09-10T00:56:33.820Z,37.00
2022-09-10T01:01:41.295Z,39.10
2022-09-10T01:06:52.086Z,43.00
2022-09-10T01:12:17.601Z,42.70
2022-09-10T01:17:34.318Z,37.20
2022-09-10T01:27:59.217Z,41.80
2022-09-10T01:33:13.300Z,41.60
2022-09-10T01:38:25.558Z,41.40
2022-09-10T01:43:33.909Z,43.70
2022-09-10T01:49:05.543Z,43.20
2022-09-10T01:54:25.084Z,47.00
2022-09-10T01:59:44.648Z,47.00
2022-09-10T02:04:56.828Z,53.10
2022-09-10T02:10:05.861Z,55.10
2022-09-10T02:15:14.274Z,55.40
2022-09-10T02:20:22.468Z,55.30
2022-09-10T02:25:33.908Z,51.80
2022-09-10T02:30:40.856Z,44.40
2022-09-10T02:35:48.494Z,39.10
2022-09-10T02:40:55.784Z,42.90
2022-09-10T02:46:03.813Z,40.30
2022-09-10T02:54:00.003Z,38.20
2022-09-10T03:19:43.280Z,41.50
2022-09-10T03:28:37.283Z,43.50
2022-09-10T03:33:33.562Z,48.60
2022-09-10T03:39:05.582Z,43.70
2022-09-10T03:44:14.784Z,47.00
2022-09-10T03:49:29.757Z,48.30
2022-09-10T03:54:54.160Z,45.90
2022-09-10T04:00:13.863Z,46.00
2022-09-10T04:05:24.933Z,48.20
2022-09-10T04:10:33.313Z,48.10
2022-09-10T04:15:46.410Z,45.20
2022-09-10T04:20:54.313Z,42.90
2022-09-10T04:26:02.838Z,45.50
2022-09-10T04:31:10.455Z,45.30
2022-09-10T04:36:17.915Z,46.20
2022-09-10T04:41:25.542Z,42.40
2022-09-10T04:46:33.233Z,41.60
2022-09-10T04:51:40.855Z,40.00
2022-09-10T04:57:26.547Z,41.10
2022-09-10T05:02:26.612Z,41.70
2022-09-10T05:07:35.585Z,41.40
2022-09-10T05:12:44.164Z,38.50
2022-09-10T05:18:36.515Z,44.70
2022-09-10T05:24:05.398Z,45.50
2022-09-10T05:29:15.672Z,49.50
2022-09-10T05:34:26.818Z,41.50
2022-09-10T05:39:37.469Z,43.00
2022-09-10T05:44:45.926Z,41.60
2022-09-10T05:49:55.671Z,40.00
2022-09-10T05:55:03.660Z,43.70
2022-09-10T06:00:11.231Z,43.70
2022-09-10T06:05:23.234Z,39.80
2022-09-10T06:10:33.559Z,40.30
2022-09-10T06:15:46.287Z,38.40
2022-09-10T06:21:05.521Z,41.70
2022-09-10T06:26:17.579Z,39.10
2022-09-10T06:31:27.562Z,41.10
2022-09-10T06:36:35.772Z,40.60
2022-09-10T06:41:49.052Z,42.40
2022-09-10T06:47:45.886Z,41.50
2022-09-10T06:52:33.361Z,37.10
2022-09-10T06:57:47.317Z,37.70
2022-09-10T07:02:57.635Z,43.30
2022-09-10T07:08:07.142Z,38.50
2022-09-10T07:13:19.390Z,41.00
2022-09-10T07:18:39.369Z,33.00
2022-09-10T07:23:50.314Z,37.60
2022-09-10T07:28:59.591Z,39.20
2022-09-10T07:34:08.947Z,38.90
2022-09-10T07:39:23.543Z,36.00
2022-09-10T07:44:45.664Z,30.50
2022-09-10T07:49:55.318Z,34.20
2022-09-10T07:55:04.657Z,28.50
2022-09-10T08:00:17.916Z,25.40
2022-09-10T08:05:37.295Z,24.20
2022-09-10T08:10:55.497Z,26.80
2022-09-10T08:16:07.807Z,26.20
2022-09-10T08:21:19.883Z,26.60
2022-09-10T08:26:29.239Z,23.20
2022-09-10T08:31:37.521Z,25.20
2022-09-10T08:36:48.975Z,26.70
2022-09-10T08:42:05.413Z,19.70
2022-09-10T08:47:30.281Z,22.60
2022-09-10T08:52:43.779Z,23.20
2022-09-10T08:58:11.808Z,23.90
2022-09-10T09:03:33.134Z,24.10
2022-09-10T09:08:48.713Z,24.40
2022-09-10T09:14:27.351Z,20.30
2022-09-10T09:19:46.690Z,17.80
2022-09-10T09:25:03.098Z,10.80
2022-09-10T09:30:39.409Z,9.90
2022-09-10T09:35:58.000Z,11.00
2022-09-10T09:41:16.325Z,9.80
2022-09-10T09:46:24.912Z,8.90
2022-09-10T09:51:35.885Z,7.20
2022-09-10T09:56:51.473Z,7.50
2022-09-10T10:02:11.108Z,7.20
2022-09-10T10:07:31.860Z,7.20
2022-09-10T10:12:50.921Z,5.10
2022-09-10T10:18:12.760Z,5.30
2022-09-10T10:23:36.897Z,5.00
2022-09-10T10:29:01.666Z,4.80
2022-09-10T10:34:47.868Z,5.50
2022-09-10T10:40:19.092Z,4.00
2022-09-10T10:46:02.003Z,5.00
2022-09-10T10:51:21.306Z,4.20
2022-09-10T10:56:36.681Z,4.20
2022-09-10T11:01:56.871Z,5.90
2022-09-10T11:07:19.120Z,6.50
2022-09-10T11:12:35.648Z,6.00
2022-09-10T11:18:21.716Z,6.20
2022-09-10T11:23:38.472Z,5.50
2022-09-10T11:29:23.109Z,7.00
2022-09-10T11:40:59.234Z,5.50
2022-09-10T11:46:16.732Z,4.90
2022-09-10T11:51:31.136Z,4.10
2022-09-10T11:57:01.046Z,3.80
2022-09-10T12:03:00.039Z,3.20
2022-09-10T12:08:19.418Z,3.60
2022-09-10T12:13:27.235Z,5.20
2022-09-10T12:18:46.975Z,3.40
2022-09-10T12:24:01.853Z,3.90
2022-09-10T12:29:26.353Z,3.40
2022-09-10T12:34:34.270Z,4.80
2022-09-10T12:39:42.453Z,4.00
2022-09-10T12:44:55.462Z,3.70
2022-09-10T12:50:09.492Z,4.10
2022-09-10T13:01:13.824Z,3.20
2022-09-10T13:06:44.829Z,4.70
2022-09-10T13:12:57.006Z,4.10
2022-09-10T13:18:35.688Z,5.60
2022-09-10T13:23:52.208Z,5.10
2022-09-10T13:29:11.794Z,15.20
2022-09-10T13:35:17.734Z,6.20
2022-09-10T13:47:42.406Z,6.70
2022-09-10T13:53:11.165Z,5.80
2022-09-10T13:58:40.614Z,6.20
2022-09-10T14:04:01.735Z,6.00
2022-09-10T14:09:30.831Z,4.40
2022-09-10T14:14:45.461Z,4.60
2022-09-10T14:20:04.791Z,5.10
2022-09-10T14:25:26.117Z,5.10
2022-09-10T14:30:36.133Z,4.10
2022-09-10T14:35:51.881Z,5.70
2022-09-10T14:41:08.021Z,5.80
2022-09-10T14:47:06.976Z,6.90
2022-09-10T14:52:20.975Z,5.00
2022-09-10T14:57:29.520Z,5.00
2022-09-10T15:02:37.229Z,5.40
2022-09-10T15:13:04.680Z,6.10
2022-09-10T15:18:17.577Z,8.70
2022-09-10T15:23:30.081Z,9.90
2022-09-10T15:28:39.647Z,9.10
2022-09-10T15:33:49.162Z,7.90
2022-09-10T15:39:02.701Z,10.70
2022-09-10T15:44:26.479Z,11.20
2022-09-10T15:49:44.072Z,10.10
2022-09-10T15:55:09.901Z,8.10
2022-09-10T16:06:41.120Z,6.70
2022-09-10T16:12:05.289Z,7.40
2022-09-10T16:17:13.583Z,9.00
2022-09-10T16:22:22.466Z,6.90
2022-09-10T16:27:31.771Z,6.60
2022-09-10T16:33:01.945Z,7.10
2022-09-10T16:38:29.052Z,8.00
2022-09-10T16:43:42.192Z,7.70
2022-09-10T16:49:17.507Z,7.40
2022-09-10T16:54:30.370Z,6.60
2022-09-10T16:59:37.863Z,7.20
2022-09-10T17:04:45.732Z,7.50
2022-09-10T17:09:55.454Z,7.90
2022-09-10T17:15:08.203Z,10.40
2022-09-10T17:20:19.690Z,10.30
2022-09-10T17:25:43.621Z,9.50
2022-09-10T17:30:59.714Z,10.80
2022-09-10T17:36:18.678Z,11.50
2022-09-10T17:42:07.564Z,9.00
2022-09-10T17:47:45.716Z,3.60
2022-09-10T17:53:09.090Z,4.70
2022-09-10T17:58:17.944Z,4.80
2022-09-10T18:03:34.178Z,3.80
2022-09-10T18:08:44.008Z,4.10
2022-09-10T18:13:57.574Z,12.10
2022-09-10T18:19:12.857Z,12.60
2022-09-10T18:24:40.012Z,7.30
2022-09-10T18:29:49.327Z,7.40
2022-09-10T18:34:59.707Z,12.70
2022-09-10T18:40:31.740Z,5.40
2022-09-10T18:45:41.100Z,6.10
2022-09-10T18:50:52.184Z,8.70
2022-09-10T18:56:00.053Z,7.40
2022-09-10T19:01:11.168Z,6.30
2022-09-10T19:06:21.086Z,12.40
2022-09-10T19:11:33.354Z,6.90
2022-09-10T19:16:41.714Z,5.80
2022-09-10T19:21:51.828Z,7.10
2022-09-10T19:27:01.759Z,9.40
2022-09-10T19:32:11.698Z,7.40
2022-09-10T19:37:22.795Z,7.20
2022-09-10T19:42:34.402Z,9.40
2022-09-10T19:47:43.658Z,8.20
2022-09-10T19:52:54.380Z,8.90
2022-09-10T19:58:01.725Z,8.40
2022-09-10T20:03:10.840Z,6.80
2022-09-10T20:08:19.843Z,8.00
2022-09-10T20:13:27.943Z,7.40
2022-09-10T20:18:37.047Z,8.10
2022-09-10T20:23:59.412Z,7.50
2022-09-10T20:29:33.475Z,7.10
2022-09-10T20:34:45.995Z,11.10
2022-09-10T20:39:57.805Z,11.00
2022-09-10T20:45:06.872Z,9.70
2022-09-10T20:50:32.985Z,9.80
2022-09-10T21:01:19.565Z,9.60
2022-09-10T21:06:32.415Z,8.20
2022-09-10T21:11:45.362Z,11.50
2022-09-10T21:17:00.322Z,12.00
2022-09-10T21:22:21.543Z,9.30
2022-09-10T21:27:42.873Z,11.10
2022-09-10T21:32:59.028Z,9.80
2022-09-10T21:38:10.073Z,13.50
2022-09-10T21:43:18.647Z,13.10
2022-09-10T21:48:27.554Z,10.90
2022-09-10T21:53:40.323Z,11.20
2022-09-10T21:58:50.320Z,13.40
2022-09-10T22:03:59.949Z,14.00
2022-09-10T22:09:10.931Z,9.40
2022-09-10T22:14:24.187Z,9.10
2022-09-10T22:19:32.919Z,11.50
2022-09-10T22:24:41.197Z,10.60
2022-09-10T22:29:53.770Z,12.20
2022-09-10T22:48:18.343Z,13.40
2022-09-10T22:54:18.049Z,12.70
2022-09-10T22:59:48.182Z,12.40
2022-09-10T23:06:10.142Z,10.10
2022-09-10T23:11:39.895Z,14.30
2022-09-10T23:17:03.921Z,11.20
2022-09-10T23:23:06.410Z,13.60
2022-09-10T23:34:16.431Z,10.30
2022-09-10T23:39:56.440Z,11.70
2022-09-10T23:46:23.775Z,11.10
2022-09-10T23:51:40.947Z,11.10
2022-09-10T23:57:30.862Z,13.70
